Hamburg, Louisiana
Current Conditions -  °F | °C
As of 11:55 AM on Saturday 20 Dec 2014 (Local Time) from KOPL Reporting Station
Overcast Overcast  
Wind Chill: 46°   Ceiling: 800
Heat Index: 49°   Visibility: 10mi
Dew Point: 46°   Wind: 7mph
Humidity: 90%   Direction: 360°N
Pressure: 30.18"   Gusts: NA
Location:  31.03°N, 91.93°W
Report Text: KOPL 201755Z AUTO 36006KT 10SM OVC008 10/08 A3018 RMK AO2 T00950080 10095 20080
Loading
Personal Weather Stations






























Interactive Weather Map New forecast layout! Learn more

10-Day Weather Forecast

Advertisements
Track Severe Weather on mobile